createdAt,value
2022-08-12T00:02:03.249Z,99690.84
2022-08-12T00:04:58.203Z,99694.43
2022-08-12T00:08:28.923Z,99688.78
2022-08-12T00:11:47.536Z,99687.67
2022-08-12T00:15:11.660Z,99687.67
2022-08-12T00:18:37.818Z,99694.38
2022-08-12T00:22:01.227Z,99694.64
2022-08-12T00:26:05.409Z,99690.20
2022-08-12T00:28:51.118Z,99685.41
2022-08-12T00:32:35.325Z,99692.98
2022-08-12T00:35:44.437Z,99689.52
2022-08-12T00:39:09.474Z,99694.05
2022-08-12T00:42:17.449Z,99705.45
2022-08-12T00:45:22.986Z,99702.50
2022-08-12T00:48:28.284Z,99703.60
2022-08-12T00:51:38.358Z,99707.56
2022-08-12T00:54:43.578Z,99709.03
2022-08-12T00:57:50.769Z,99712.07
2022-08-12T01:00:56.865Z,99711.76
2022-08-12T01:04:20.152Z,99705.05
2022-08-12T01:07:43.952Z,99712.59
2022-08-12T01:11:11.085Z,99716.73
2022-08-12T01:14:11.917Z,99726.77
2022-08-12T01:17:17.619Z,99711.97
2022-08-12T01:20:22.907Z,99729.06
2022-08-12T01:23:40.875Z,99733.55
2022-08-12T01:26:46.704Z,99725.94
2022-08-12T01:29:58.490Z,99722.84
2022-08-12T01:33:05.217Z,99723.77
2022-08-12T01:36:13.518Z,99725.23
2022-08-12T01:39:18.993Z,99734.17
2022-08-12T01:42:18.351Z,99729.79
2022-08-12T01:45:11.277Z,99732.92
2022-08-12T01:48:41.136Z,99732.08
2022-08-12T01:52:20.361Z,99728.17
2022-08-12T01:54:56.061Z,99732.64
2022-08-12T01:58:01.037Z,99725.37
2022-08-12T02:01:18.372Z,99721.15
2022-08-12T02:05:10.731Z,99714.36
2022-08-12T02:09:11.329Z,99715.22
2022-08-12T02:12:41.872Z,99717.70
2022-08-12T02:16:18.615Z,99721.61
2022-08-12T02:19:50.861Z,99725.23
2022-08-12T02:22:58.241Z,99721.91
2022-08-12T02:26:03.801Z,99712.44
2022-08-12T02:29:09.271Z,99723.61
2022-08-12T02:32:15.654Z,99714.11
2022-08-12T02:35:27.098Z,99717.43
2022-08-12T02:38:34.275Z,99722.16
2022-08-12T02:41:40.060Z,99731.89
2022-08-12T02:44:50.733Z,99734.06
2022-08-12T02:47:59.688Z,99741.28
2022-08-12T02:51:08.052Z,99755.81
2022-08-12T02:54:16.426Z,99759.72
2022-08-12T02:57:23.866Z,99765.36
2022-08-12T03:00:29.557Z,99770.13
2022-08-12T03:03:34.911Z,99764.53
2022-08-12T03:06:42.817Z,99767.88
2022-08-12T03:10:04.384Z,99769.53
2022-08-12T03:13:01.442Z,99768.68
2022-08-12T03:16:08.462Z,99761.49
2022-08-12T03:19:13.741Z,99768.12
2022-08-12T03:22:21.810Z,99765.08
2022-08-12T03:25:41.134Z,99773.17
2022-08-12T03:29:05.255Z,99775.14
2022-08-12T03:32:35.915Z,99789.06
2022-08-12T03:35:40.066Z,99780.70
2022-08-12T03:38:30.566Z,99787.71
2022-08-12T03:41:43.388Z,99782.13
2022-08-12T03:45:22.994Z,99781.53
2022-08-12T03:48:46.501Z,99782.89
2022-08-12T03:52:10.259Z,99793.41
2022-08-12T03:55:34.365Z,99799.65
2022-08-12T03:58:58.528Z,99808.06
2022-08-12T04:02:05.774Z,99811.72
2022-08-12T04:05:11.433Z,99818.94
2022-08-12T04:08:18.394Z,99823.66
2022-08-12T04:11:46.951Z,99825.06
2022-08-12T04:14:48.492Z,99826.72
2022-08-12T04:18:07.398Z,99829.03
2022-08-12T04:21:01.947Z,99830.70
2022-08-12T04:24:07.566Z,99834.88
2022-08-12T04:27:15.565Z,99848.03
2022-08-12T04:30:32.529Z,99851.63
2022-08-12T04:33:28.612Z,99850.80
2022-08-12T04:36:33.412Z,99850.84
2022-08-12T04:39:41.320Z,99859.95
2022-08-12T04:42:48.191Z,99857.75
2022-08-12T04:45:56.506Z,99856.05
2022-08-12T04:49:02.699Z,99856.33
2022-08-12T04:52:10.437Z,99862.43
2022-08-12T04:55:18.590Z,99858.80
2022-08-12T04:58:29.445Z,99861.88
2022-08-12T05:01:33.671Z,99861.59
2022-08-12T05:04:39.252Z,99861.59
2022-08-12T05:07:47.821Z,99853.00
2022-08-12T05:10:53.128Z,99857.77
2022-08-12T05:13:59.002Z,99863.95
2022-08-12T05:17:07.626Z,99864.55
2022-08-12T05:20:14.500Z,99863.45
2022-08-12T05:23:25.999Z,99858.45
2022-08-12T05:26:32.411Z,99869.05
2022-08-12T05:30:06.371Z,99872.39
2022-08-12T05:32:45.467Z,99864.03
2022-08-12T05:35:54.382Z,99870.73
2022-08-12T05:39:04.454Z,99859.28
2022-08-12T05:42:11.796Z,99860.69
2022-08-12T05:45:11.142Z,99851.80
2022-08-12T05:47:57.797Z,99855.48
2022-08-12T05:50:51.273Z,99859.69
2022-08-12T05:53:39.339Z,99871.70
2022-08-12T05:56:34.324Z,99865.86
2022-08-12T05:59:28.028Z,99873.12
2022-08-12T06:02:33.466Z,99884.56
2022-08-12T06:05:51.862Z,99880.38
2022-08-12T06:08:50.691Z,99886.78
2022-08-12T06:12:04.441Z,99885.36
2022-08-12T06:15:05.203Z,99875.31
2022-08-12T06:18:20.039Z,99870.27
2022-08-12T06:21:27.992Z,99868.86
2022-08-12T06:24:34.943Z,99853.50
2022-08-12T06:27:40.632Z,99855.98
2022-08-12T06:31:08.298Z,99850.14
2022-08-12T06:33:59.668Z,99835.07
2022-08-12T06:37:02.591Z,99820.84
2022-08-12T06:40:08.744Z,99827.30
2022-08-12T06:43:14.499Z,99833.72
2022-08-12T06:46:13.385Z,99831.52
2022-08-12T06:49:07.617Z,99827.61
2022-08-12T06:52:14.651Z,99817.59
2022-08-12T06:55:22.132Z,99812.84
2022-08-12T06:58:28.377Z,99818.45
2022-08-12T07:01:36.738Z,99816.77
2022-08-12T07:04:43.947Z,99808.13
2022-08-12T07:07:51.868Z,99811.73
2022-08-12T07:11:09.059Z,99809.77
2022-08-12T07:14:16.480Z,99818.12
2022-08-12T07:17:22.768Z,99825.09
2022-08-12T07:20:51.213Z,99826.77
2022-08-12T07:23:35.479Z,99828.38
2022-08-12T07:26:44.266Z,99831.97
2022-08-12T07:30:02.655Z,99838.33
2022-08-12T07:33:01.788Z,99837.20
2022-08-12T07:36:06.726Z,99838.20
2022-08-12T07:39:11.507Z,99831.70
2022-08-12T07:42:17.988Z,99828.08
2022-08-12T07:45:24.305Z,99827.56
2022-08-12T07:48:29.604Z,99828.02
2022-08-12T07:51:37.163Z,99822.03
2022-08-12T07:54:43.628Z,99831.70
2022-08-12T07:57:49.571Z,99826.20
2022-08-12T08:00:56.774Z,99815.59
2022-08-12T08:04:24.415Z,99823.23
2022-08-12T08:07:29.386Z,99822.59
2022-08-12T08:10:35.521Z,99822.20
2022-08-12T08:13:43.219Z,99830.45
2022-08-12T08:16:51.251Z,99840.88
2022-08-12T08:20:03.894Z,99830.68
2022-08-12T08:23:08.145Z,99834.17
2022-08-12T08:26:13.492Z,99837.38
2022-08-12T08:29:20.385Z,99821.94
2022-08-12T08:32:26.226Z,99832.53
2022-08-12T08:35:47.126Z,99836.66
2022-08-12T08:38:40.289Z,99837.81
2022-08-12T08:42:17.581Z,99836.08
2022-08-12T08:45:14.124Z,99841.55
2022-08-12T08:48:21.619Z,99848.89
2022-08-12T08:51:28.850Z,99845.53
2022-08-12T08:54:37.311Z,99847.56
2022-08-12T08:57:44.735Z,99840.45
2022-08-12T09:00:47.619Z,99832.47
2022-08-12T09:05:09.714Z,99842.67
2022-08-12T09:07:18.063Z,99853.05
2022-08-12T09:10:23.417Z,99857.84
2022-08-12T09:16:50.124Z,99838.70
2022-08-12T09:19:58.332Z,99836.45
2022-08-12T09:23:08.053Z,99840.86
2022-08-12T09:26:09.780Z,99845.09
2022-08-12T09:29:16.191Z,99834.47
2022-08-12T09:32:56.237Z,99819.72
2022-08-12T09:35:43.051Z,99824.23
2022-08-12T09:38:58.933Z,99823.91
2022-08-12T09:42:34.502Z,99823.91
2022-08-12T09:46:06.281Z,99825.64
2022-08-12T09:48:25.304Z,99832.61
2022-08-12T09:51:37.743Z,99852.41
2022-08-12T09:54:42.995Z,99836.09
2022-08-12T09:58:44.983Z,99816.42
2022-08-12T10:00:54.367Z,99825.25
2022-08-12T10:04:04.541Z,99831.24
2022-08-12T10:07:06.937Z,99832.14
2022-08-12T10:10:23.007Z,99826.99
2022-08-12T10:13:40.160Z,99820.89
2022-08-12T10:16:48.478Z,99829.11
2022-08-12T10:19:51.790Z,99831.55
2022-08-12T10:22:56.130Z,99831.55
2022-08-12T10:26:37.569Z,99831.29
2022-08-12T10:30:38.040Z,99817.78
2022-08-12T10:32:58.021Z,99816.24
2022-08-12T10:36:07.046Z,99805.20
2022-08-12T10:40:01.780Z,99805.22
2022-08-12T10:42:46.308Z,99821.89
2022-08-12T10:45:49.911Z,99826.07
2022-08-12T10:49:05.596Z,99814.37
2022-08-12T10:52:34.361Z,99818.06
2022-08-12T10:55:13.063Z,99819.58
2022-08-12T10:58:28.086Z,99813.03
2022-08-12T11:04:17.210Z,99837.20
2022-08-12T11:04:44.849Z,99812.38
2022-08-12T11:08:36.639Z,99812.91
2022-08-12T11:10:54.519Z,99812.91
2022-08-12T11:14:00.129Z,99819.26
2022-08-12T11:17:34.090Z,99862.28
2022-08-12T11:20:15.198Z,99840.59
2022-08-12T11:23:35.764Z,99828.02
2022-08-12T11:26:27.114Z,99852.32
2022-08-12T11:30:01.441Z,99852.32
2022-08-12T11:32:41.310Z,99822.20
2022-08-12T11:35:51.297Z,99839.41
2022-08-12T11:38:58.119Z,99827.80
2022-08-12T11:41:57.026Z,99835.10
2022-08-12T11:45:05.084Z,99847.17
2022-08-12T11:48:10.842Z,99840.74
2022-08-12T11:51:17.930Z,99843.56
2022-08-12T11:54:23.997Z,99842.41
2022-08-12T11:58:19.670Z,99844.34
2022-08-12T12:03:46.679Z,99871.00
2022-08-12T12:06:53.423Z,99871.00
2022-08-12T12:10:00.366Z,99871.22
2022-08-12T12:13:11.627Z,99858.19
2022-08-12T12:16:13.714Z,99871.80
2022-08-12T12:19:20.545Z,99877.49
2022-08-12T12:22:30.952Z,99862.70
2022-08-12T12:25:59.216Z,99862.99
2022-08-12T12:28:40.983Z,99875.92
2022-08-12T12:32:11.814Z,99860.77
2022-08-12T12:35:14.054Z,99863.59
2022-08-12T12:38:12.379Z,99870.68
2022-08-12T12:41:18.868Z,99875.80
2022-08-12T12:44:25.786Z,99869.34
2022-08-12T12:47:31.285Z,99878.76
2022-08-12T12:50:45.279Z,99854.25
2022-08-12T12:54:07.873Z,99870.96
2022-08-12T12:56:56.416Z,99853.02
2022-08-12T13:00:20.690Z,99842.88
2022-08-12T13:03:29.937Z,99857.48
2022-08-12T13:06:38.748Z,99845.42
2022-08-12T13:09:46.796Z,99835.66
2022-08-12T13:12:52.081Z,99863.53
2022-08-12T13:15:59.411Z,99849.23
2022-08-12T13:19:06.838Z,99853.78
2022-08-12T13:22:26.265Z,99883.98
2022-08-12T13:25:34.354Z,99856.69
2022-08-12T13:28:42.983Z,99866.34
2022-08-12T13:32:19.398Z,99853.08
2022-08-12T13:35:03.903Z,99853.76
2022-08-12T13:38:08.941Z,99858.84
2022-08-12T13:41:14.005Z,99867.90
2022-08-12T13:44:22.839Z,99846.98
2022-08-12T13:47:28.750Z,99839.33
2022-08-12T13:50:43.659Z,99848.34
2022-08-12T13:53:57.700Z,99860.66
2022-08-12T13:56:58.125Z,99860.31
2022-08-12T14:00:04.083Z,99850.09
2022-08-12T14:03:11.964Z,99858.39
2022-08-12T14:06:22.017Z,99861.14
2022-08-12T14:09:29.562Z,99848.50
2022-08-12T14:12:36.905Z,99860.39
2022-08-12T14:15:44.381Z,99863.68
2022-08-12T14:18:52.014Z,99886.16
2022-08-12T14:22:04.662Z,99869.39
2022-08-12T14:25:08.629Z,99858.77
2022-08-12T14:28:25.570Z,99871.59
2022-08-12T14:31:32.575Z,99875.11
2022-08-12T14:34:40.655Z,99870.71
2022-08-12T14:37:56.407Z,99860.90
2022-08-12T14:40:57.705Z,99870.02
2022-08-12T14:44:57.312Z,99872.56
2022-08-12T14:47:12.672Z,99903.31
2022-08-12T14:50:40.841Z,99878.98
2022-08-12T15:00:00.644Z,99859.81
2022-08-12T15:02:59.920Z,99863.77
2022-08-12T15:06:06.636Z,99860.12
2022-08-12T15:08:54.864Z,99851.45
2022-08-12T15:12:04.537Z,99845.94
2022-08-12T15:15:13.862Z,99854.09
2022-08-12T15:18:24.385Z,99859.74
2022-08-12T15:22:36.763Z,99865.66
2022-08-12T15:24:43.868Z,99840.95
2022-08-12T15:28:04.260Z,99858.39
2022-08-12T15:31:01.377Z,99864.00
2022-08-12T15:34:07.738Z,99862.91
2022-08-12T15:37:17.225Z,99858.20
2022-08-12T15:40:30.269Z,99856.84
2022-08-12T15:44:17.002Z,99861.39
2022-08-12T15:46:43.836Z,99866.98
2022-08-12T15:49:59.506Z,99871.80
2022-08-12T15:52:58.414Z,99849.95
2022-08-12T15:56:05.463Z,99846.91
2022-08-12T15:59:10.949Z,99846.67
2022-08-12T16:02:20.423Z,99857.08
2022-08-12T16:06:12.931Z,99856.23
2022-08-12T16:08:37.298Z,99858.71
2022-08-12T16:11:45.007Z,99857.91
2022-08-12T16:14:51.266Z,99861.00
2022-08-12T16:18:17.925Z,99859.33
2022-08-12T16:21:09.075Z,99857.09
2022-08-12T16:24:14.838Z,99858.49
2022-08-12T16:27:21.440Z,99845.05
2022-08-12T16:30:29.377Z,99844.55
2022-08-12T16:33:35.741Z,99836.97
2022-08-12T16:36:47.396Z,99851.27
2022-08-12T16:40:01.720Z,99852.12
2022-08-12T16:43:02.152Z,99858.28
2022-08-12T16:46:05.567Z,99863.09
2022-08-12T16:48:47.059Z,99864.45
2022-08-12T16:52:00.098Z,99864.53
2022-08-12T16:55:05.404Z,99867.86
2022-08-12T16:58:28.546Z,99863.70
2022-08-12T17:01:19.729Z,99862.88
2022-08-12T17:04:28.241Z,99863.69
2022-08-12T17:07:36.477Z,99871.53
2022-08-12T17:10:41.536Z,99862.88
2022-08-12T17:13:53.117Z,99862.30
2022-08-12T17:16:59.577Z,99867.09
2022-08-12T17:20:34.893Z,99884.14
2022-08-12T17:23:23.652Z,99888.34
2022-08-12T17:26:32.888Z,99883.30
2022-08-12T17:30:01.943Z,99890.59
2022-08-12T17:32:53.302Z,99898.12
2022-08-12T17:35:57.902Z,99906.77
2022-08-12T17:39:04.779Z,99906.23
2022-08-12T17:42:32.891Z,99917.09
2022-08-12T17:45:18.471Z,99926.30
2022-08-12T17:48:26.267Z,99927.67
2022-08-12T17:51:49.858Z,99921.81
2022-08-12T17:54:45.323Z,99923.20
2022-08-12T17:57:52.905Z,99929.59
2022-08-12T18:01:01.044Z,99925.41
2022-08-12T18:04:22.863Z,99922.92
2022-08-12T18:07:21.279Z,99917.61
2022-08-12T18:10:53.130Z,99912.84
2022-08-12T18:13:59.606Z,99904.16
2022-08-12T18:17:10.033Z,99900.52
2022-08-12T18:20:19.485Z,99903.57
2022-08-12T18:23:25.190Z,99900.48
2022-08-12T18:26:34.941Z,99900.47
2022-08-12T18:29:43.221Z,99895.13
2022-08-12T18:32:58.854Z,99894.84
2022-08-12T18:36:02.864Z,99894.23
2022-08-12T18:39:19.519Z,99884.69
2022-08-12T18:42:25.414Z,99884.97
2022-08-12T18:45:46.862Z,99891.34
2022-08-12T18:48:52.465Z,99894.95
2022-08-12T18:52:02.263Z,99887.11
2022-08-12T18:55:08.342Z,99877.09
2022-08-12T18:58:25.467Z,99882.09
2022-08-12T19:02:19.389Z,99883.47
2022-08-12T19:04:45.574Z,99883.97
2022-08-12T19:08:04.379Z,99891.23
2022-08-12T19:11:30.880Z,99887.82
2022-08-12T19:14:40.499Z,99885.84
2022-08-12T19:18:01.157Z,99890.55
2022-08-12T19:21:11.679Z,99891.02
2022-08-12T19:24:29.354Z,99897.14
2022-08-12T19:27:37.026Z,99895.47
2022-08-12T19:31:05.703Z,99895.81
2022-08-12T19:34:47.031Z,99903.84
2022-08-12T19:37:18.947Z,99902.13
2022-08-12T19:40:31.251Z,99904.56
2022-08-12T19:43:59.520Z,99905.41
2022-08-12T19:46:51.884Z,99910.11
2022-08-12T19:50:05.529Z,99911.19
2022-08-12T19:53:12.870Z,99915.65
2022-08-12T19:56:20.459Z,99911.50
2022-08-12T19:59:43.477Z,99904.53
2022-08-12T20:02:44.299Z,99891.74
2022-08-12T20:06:04.594Z,99880.91
2022-08-12T20:09:04.028Z,99885.95
2022-08-12T20:12:18.047Z,99888.25
2022-08-12T20:15:21.871Z,99893.83
2022-08-12T20:18:52.927Z,99896.94
2022-08-12T20:21:40.613Z,99893.34
2022-08-12T20:24:46.291Z,99890.86
2022-08-12T20:28:03.045Z,99890.45
2022-08-12T20:30:59.388Z,99893.28
2022-08-12T20:33:50.679Z,99888.81
2022-08-12T20:36:57.320Z,99883.30
2022-08-12T20:40:05.354Z,99880.20
2022-08-12T20:43:12.822Z,99875.48
2022-08-12T20:46:20.191Z,99880.97
2022-08-12T20:49:25.101Z,99881.59
2022-08-12T20:52:34.242Z,99876.63
2022-08-12T20:55:56.583Z,99880.03
2022-08-12T20:58:50.845Z,99873.31
2022-08-12T21:01:56.876Z,99873.52
2022-08-12T21:05:23.112Z,99873.81
2022-08-12T21:08:28.685Z,99871.58
2022-08-12T21:11:33.856Z,99871.80
2022-08-12T21:14:53.447Z,99864.30
2022-08-12T21:18:08.969Z,99865.39
2022-08-12T21:20:59.441Z,99865.29
2022-08-12T21:24:05.043Z,99854.48
2022-08-12T21:27:11.636Z,99851.59
2022-08-12T21:30:20.478Z,99852.16
2022-08-12T21:33:30.797Z,99847.97
2022-08-12T21:36:35.257Z,99847.13
2022-08-12T21:39:41.317Z,99847.13
2022-08-12T21:42:49.060Z,99852.09
2022-08-12T21:46:01.657Z,99867.10
2022-08-12T21:49:04.802Z,99875.62
2022-08-12T21:52:10.892Z,99875.27
2022-08-12T21:55:19.009Z,99879.16
2022-08-12T21:58:27.820Z,99871.59
2022-08-12T22:01:35.830Z,99869.09
2022-08-12T22:04:52.706Z,99867.62
2022-08-12T22:07:58.426Z,99871.80
2022-08-12T22:11:04.300Z,99869.99
2022-08-12T22:14:21.383Z,99861.20
2022-08-12T22:17:21.592Z,99860.89
2022-08-12T22:20:31.093Z,99866.36
2022-08-12T22:24:04.135Z,99873.76
2022-08-12T22:26:43.296Z,99881.23
2022-08-12T22:30:06.910Z,99868.88
2022-08-12T22:33:18.137Z,99869.15
2022-08-12T22:36:29.076Z,99870.83
2022-08-12T22:39:32.327Z,99876.39
2022-08-12T22:42:40.519Z,99868.59
2022-08-12T22:46:05.494Z,99868.27
2022-08-12T22:49:10.960Z,99861.30
2022-08-12T22:52:22.916Z,99870.23
2022-08-12T22:56:00.522Z,99872.17
2022-08-12T22:58:40.746Z,99867.16
2022-08-12T23:02:01.453Z,99871.05
2022-08-12T23:04:57.424Z,99880.23
2022-08-12T23:08:04.317Z,99877.66
2022-08-12T23:11:09.206Z,99873.70
2022-08-12T23:14:10.607Z,99868.42
2022-08-12T23:17:21.450Z,99867.16
2022-08-12T23:20:19.762Z,99858.84
2022-08-12T23:23:27.415Z,99852.27
2022-08-12T23:26:52.227Z,99857.23
2022-08-12T23:30:16.664Z,99857.89
2022-08-12T23:33:13.416Z,99861.79
2022-08-12T23:36:13.307Z,99862.63
2022-08-12T23:40:13.158Z,99864.14
2022-08-12T23:42:31.029Z,99864.42
2022-08-12T23:45:34.685Z,99867.53
2022-08-12T23:48:40.991Z,99868.88
2022-08-12T23:51:49.628Z,99861.92
2022-08-12T23:54:58.053Z,99857.46
2022-08-12T23:58:21.413Z,99848.11
